Baker City Municipal Airport
KBKE : now visible

Airfield :











YOU CAN JOIN US ON...

 
LOGIN :

Register | Disclaimer

   EN    FR    IT 

 









Legend :    VFR   Marginal VFR   IFR   Intensive IFR   Very Intensive IFR
Visi :
Ceiling :
>= 8 km
>= 3000ft
5 to 8 km
1000 to 3000 ft
1500m to 5 km
500 to 1000 ft
800 to 1500m
200 to 500 ft
< 800m
< 200 ft
Symbols :   Thunderstorms  Fog  Heavy snow  Heavy precipitations  Wind > 20 kt






- Airport Elevation : 3373 ft


KBKE - Baker City Municipal

CURRENT METAR :
  • 061453Z AUTO 12012KT 10SM OVC021 03/01 A3017 RMK AO2 SLP235 T00280006 58006

EXPIRED METARs :
  • 061353Z AUTO 12012KT 10SM OVC021 02/01 A3018 RMK AO2 SLP238 T00220006
  • 061253Z AUTO 11014KT 10SM OVC022 02/01 A3018 RMK AO2 SLP239 T00220006

TAF KBKE
Valid from the 06 at 12:00 until the 07 at 12:00 UTC


061123Z 0612/0712 12010KT P6SM SCT008 OVC020
FM061800 12014G20KT P6SM BKN025 BKN150
FM070200 11009KT P6SM OVC020
FM071000 11015KT 4SM -SNRA OVC020



MET'MAP, your aeronautical weather chart ! - Copyright ORBIFLY December 2007 - Disclaimer

ORBIFLY MET'MAP TEAM :

Programming & Development : Alexandra Zaïnal
Concept & original design : Baudouin d'Aumeries
Assistance for programming : Marc-Olivier Méhu
Technical & hardware support : Manuel Goepfert

Contact : metmap@orbifly.com




SOURCES & CREDITS :

   NOAA       Earth
Advisory